sensor_id;sensor_type;location;lat;lon;timestamp;temperature;humidity
5588;DHT22;2816;49.778;9.986;2023-06-26T00:01:52;20.10;99.90
5588;DHT22;2816;49.778;9.986;2023-06-26T00:04:19;20.00;99.90
5588;DHT22;2816;49.778;9.986;2023-06-26T00:06:46;20.00;99.90
5588;DHT22;2816;49.778;9.986;2023-06-26T00:09:13;19.90;99.90
5588;DHT22;2816;49.778;9.986;2023-06-26T00:11:40;19.90;99.90
5588;DHT22;2816;49.778;9.986;2023-06-26T00:14:08;19.80;99.90
5588;DHT22;2816;49.778;9.986;2023-06-26T00:16:36;19.80;99.90
5588;DHT22;2816;49.778;9.986;2023-06-26T00:19:02;19.80;99.90
5588;DHT22;2816;49.778;9.986;2023-06-26T00:21:29;19.70;99.90
5588;DHT22;2816;49.778;9.986;2023-06-26T00:23:56;19.70;99.90
5588;DHT22;2816;49.778;9.986;2023-06-26T00:26:23;19.80;99.90
5588;DHT22;2816;49.778;9.986;2023-06-26T00:28:50;19.70;99.90
5588;DHT22;2816;49.778;9.986;2023-06-26T00:31:19;19.70;99.90
5588;DHT22;2816;49.778;9.986;2023-06-26T00:33:45;19.70;99.90
5588;DHT22;2816;49.778;9.986;2023-06-26T00:36:12;19.70;99.90
5588;DHT22;2816;49.778;9.986;2023-06-26T00:38:40;19.60;99.90
5588;DHT22;2816;49.778;9.986;2023-06-26T00:41:07;19.60;99.90
5588;DHT22;2816;49.778;9.986;2023-06-26T00:43:38;19.50;99.90
5588;DHT22;2816;49.778;9.986;2023-06-26T00:46:08;19.40;99.90
5588;DHT22;2816;49.778;9.986;2023-06-26T00:48:37;19.40;99.90
5588;DHT22;2816;49.778;9.986;2023-06-26T00:51:05;19.40;99.90
5588;DHT22;2816;49.778;9.986;2023-06-26T00:53:32;19.30;99.90
5588;DHT22;2816;49.778;9.986;2023-06-26T00:56:00;19.30;99.90
5588;DHT22;2816;49.778;9.986;2023-06-26T00:58:27;19.20;99.90
5588;DHT22;2816;49.778;9.986;2023-06-26T01:00:54;19.20;99.90
5588;DHT22;2816;49.778;9.986;2023-06-26T01:03:22;19.20;99.90
5588;DHT22;2816;49.778;9.986;2023-06-26T01:05:52;19.20;99.90
5588;DHT22;2816;49.778;9.986;2023-06-26T01:08:19;19.10;99.90
5588;DHT22;2816;49.778;9.986;2023-06-26T01:10:47;19.20;99.90
5588;DHT22;2816;49.778;9.986;2023-06-26T01:13:15;19.10;99.90
5588;DHT22;2816;49.778;9.986;2023-06-26T01:15:42;19.10;99.90
5588;DHT22;2816;49.778;9.986;2023-06-26T01:18:09;19.00;99.90
5588;DHT22;2816;49.778;9.986;2023-06-26T01:20:38;19.00;99.90
5588;DHT22;2816;49.778;9.986;2023-06-26T01:23:14;19.00;99.90
5588;DHT22;2816;49.778;9.986;2023-06-26T01:25:55;18.90;99.90
5588;DHT22;2816;49.778;9.986;2023-06-26T01:28:25;18.90;99.90
5588;DHT22;2816;49.778;9.986;2023-06-26T01:30:54;18.90;99.90
5588;DHT22;2816;49.778;9.986;2023-06-26T01:33:21;18.80;99.90
5588;DHT22;2816;49.778;9.986;2023-06-26T01:35:48;18.80;99.90
5588;DHT22;2816;49.778;9.986;2023-06-26T01:38:17;18.80;99.90
5588;DHT22;2816;49.778;9.986;2023-06-26T01:40:44;18.70;99.90
5588;DHT22;2816;49.778;9.986;2023-06-26T01:43:17;18.70;99.90
5588;DHT22;2816;49.778;9.986;2023-06-26T01:45:49;18.70;99.90
5588;DHT22;2816;49.778;9.986;2023-06-26T01:48:20;18.60;99.90
5588;DHT22;2816;49.778;9.986;2023-06-26T01:50:51;18.60;99.90
5588;DHT22;2816;49.778;9.986;2023-06-26T01:53:23;18.60;99.90
5588;DHT22;2816;49.778;9.986;2023-06-26T01:55:52;18.60;99.90
5588;DHT22;2816;49.778;9.986;2023-06-26T01:58:22;18.60;99.90
5588;DHT22;2816;49.778;9.986;2023-06-26T02:00:51;18.50;99.90
5588;DHT22;2816;49.778;9.986;2023-06-26T02:03:19;18.50;99.90
5588;DHT22;2816;49.778;9.986;2023-06-26T02:05:46;18.50;99.90
5588;DHT22;2816;49.778;9.986;2023-06-26T02:08:14;18.50;99.90
5588;DHT22;2816;49.778;9.986;2023-06-26T02:10:41;18.40;99.90
5588;DHT22;2816;49.778;9.986;2023-06-26T02:13:08;18.30;99.90
5588;DHT22;2816;49.778;9.986;2023-06-26T02:15:35;18.30;99.90
5588;DHT22;2816;49.778;9.986;2023-06-26T02:18:03;18.20;99.90
5588;DHT22;2816;49.778;9.986;2023-06-26T02:20:30;18.20;99.90
5588;DHT22;2816;49.778;9.986;2023-06-26T02:22:58;18.20;99.90
5588;DHT22;2816;49.778;9.986;2023-06-26T02:25:25;18.20;99.90
5588;DHT22;2816;49.778;9.986;2023-06-26T02:27:52;18.20;99.90
5588;DHT22;2816;49.778;9.986;2023-06-26T02:30:19;18.20;99.90
5588;DHT22;2816;49.778;9.986;2023-06-26T02:32:46;18.10;99.90
5588;DHT22;2816;49.778;9.986;2023-06-26T02:35:14;18.10;99.90
5588;DHT22;2816;49.778;9.986;2023-06-26T02:37:41;18.00;99.90
5588;DHT22;2816;49.778;9.986;2023-06-26T02:40:09;18.00;99.90
5588;DHT22;2816;49.778;9.986;2023-06-26T02:42:36;18.00;99.90
5588;DHT22;2816;49.778;9.986;2023-06-26T02:45:04;17.90;99.90
5588;DHT22;2816;49.778;9.986;2023-06-26T02:47:31;17.90;99.90
5588;DHT22;2816;49.778;9.986;2023-06-26T02:49:57;17.90;99.90
5588;DHT22;2816;49.778;9.986;2023-06-26T02:52:26;17.90;99.90
5588;DHT22;2816;49.778;9.986;2023-06-26T02:54:54;17.80;99.90
5588;DHT22;2816;49.778;9.986;2023-06-26T02:57:21;17.80;99.90
5588;DHT22;2816;49.778;9.986;2023-06-26T02:59:48;17.70;99.90
5588;DHT22;2816;49.778;9.986;2023-06-26T03:02:15;17.70;99.90
5588;DHT22;2816;49.778;9.986;2023-06-26T03:04:42;17.70;99.90
5588;DHT22;2816;49.778;9.986;2023-06-26T03:07:09;17.70;99.90
5588;DHT22;2816;49.778;9.986;2023-06-26T03:09:37;17.70;99.90
5588;DHT22;2816;49.778;9.986;2023-06-26T03:12:04;17.70;99.90
5588;DHT22;2816;49.778;9.986;2023-06-26T03:14:31;17.60;99.90
5588;DHT22;2816;49.778;9.986;2023-06-26T03:16:58;17.60;99.90
5588;DHT22;2816;49.778;9.986;2023-06-26T03:19:29;17.60;99.90
5588;DHT22;2816;49.778;9.986;2023-06-26T03:21:55;17.60;99.90
5588;DHT22;2816;49.778;9.986;2023-06-26T03:24:22;17.50;99.90
5588;DHT22;2816;49.778;9.986;2023-06-26T03:26:51;17.60;99.90
5588;DHT22;2816;49.778;9.986;2023-06-26T03:29:18;17.50;99.90
5588;DHT22;2816;49.778;9.986;2023-06-26T03:31:44;17.50;99.90
5588;DHT22;2816;49.778;9.986;2023-06-26T03:34:11;17.50;99.90
5588;DHT22;2816;49.778;9.986;2023-06-26T03:36:38;17.50;99.90
5588;DHT22;2816;49.778;9.986;2023-06-26T03:39:05;17.50;99.90
5588;DHT22;2816;49.778;9.986;2023-06-26T03:41:32;17.40;99.90
5588;DHT22;2816;49.778;9.986;2023-06-26T03:44:01;17.40;99.90
5588;DHT22;2816;49.778;9.986;2023-06-26T03:46:28;17.40;99.90
5588;DHT22;2816;49.778;9.986;2023-06-26T03:48:55;17.30;99.90
5588;DHT22;2816;49.778;9.986;2023-06-26T03:51:22;17.40;99.90
5588;DHT22;2816;49.778;9.986;2023-06-26T03:53:49;17.30;99.90
5588;DHT22;2816;49.778;9.986;2023-06-26T03:56:16;17.40;99.90
5588;DHT22;2816;49.778;9.986;2023-06-26T03:58:43;17.30;99.90
5588;DHT22;2816;49.778;9.986;2023-06-26T04:01:11;17.30;99.90
5588;DHT22;2816;49.778;9.986;2023-06-26T04:03:38;17.30;99.90
5588;DHT22;2816;49.778;9.986;2023-06-26T04:06:05;17.40;99.90
5588;DHT22;2816;49.778;9.986;2023-06-26T04:08:32;17.40;99.90
5588;DHT22;2816;49.778;9.986;2023-06-26T04:10:59;17.40;99.90
5588;DHT22;2816;49.778;9.986;2023-06-26T04:13:26;17.40;99.90
5588;DHT22;2816;49.778;9.986;2023-06-26T04:15:53;17.40;99.90
5588;DHT22;2816;49.778;9.986;2023-06-26T04:18:21;17.30;99.90
5588;DHT22;2816;49.778;9.986;2023-06-26T04:21:03;17.30;99.90
5588;DHT22;2816;49.778;9.986;2023-06-26T04:23:30;17.30;99.90
5588;DHT22;2816;49.778;9.986;2023-06-26T04:25:57;17.30;99.90
5588;DHT22;2816;49.778;9.986;2023-06-26T04:28:25;17.30;99.90
5588;DHT22;2816;49.778;9.986;2023-06-26T04:30:52;17.30;99.90
5588;DHT22;2816;49.778;9.986;2023-06-26T04:33:20;17.40;99.90
5588;DHT22;2816;49.778;9.986;2023-06-26T04:35:47;17.40;99.90
5588;DHT22;2816;49.778;9.986;2023-06-26T04:38:15;17.40;99.90
5588;DHT22;2816;49.778;9.986;2023-06-26T04:40:42;17.40;99.90
5588;DHT22;2816;49.778;9.986;2023-06-26T04:43:09;17.50;99.90
5588;DHT22;2816;49.778;9.986;2023-06-26T04:45:36;17.50;99.90
5588;DHT22;2816;49.778;9.986;2023-06-26T04:48:03;17.50;99.90
5588;DHT22;2816;49.778;9.986;2023-06-26T04:50:33;17.50;99.90
5588;DHT22;2816;49.778;9.986;2023-06-26T04:53:01;17.50;99.90
5588;DHT22;2816;49.778;9.986;2023-06-26T04:55:28;17.60;99.90
5588;DHT22;2816;49.778;9.986;2023-06-26T04:57:56;17.70;99.90
5588;DHT22;2816;49.778;9.986;2023-06-26T05:00:23;17.60;99.90
5588;DHT22;2816;49.778;9.986;2023-06-26T05:02:50;17.70;99.90
5588;DHT22;2816;49.778;9.986;2023-06-26T05:05:24;17.70;99.90
5588;DHT22;2816;49.778;9.986;2023-06-26T05:07:54;17.80;99.90
5588;DHT22;2816;49.778;9.986;2023-06-26T05:10:21;17.80;99.90
5588;DHT22;2816;49.778;9.986;2023-06-26T05:12:48;17.90;99.90
5588;DHT22;2816;49.778;9.986;2023-06-26T05:15:15;18.00;99.90
5588;DHT22;2816;49.778;9.986;2023-06-26T05:17:42;18.00;99.90
5588;DHT22;2816;49.778;9.986;2023-06-26T05:20:10;18.10;99.90
5588;DHT22;2816;49.778;9.986;2023-06-26T05:22:37;18.10;99.90
5588;DHT22;2816;49.778;9.986;2023-06-26T05:25:09;18.20;99.90
5588;DHT22;2816;49.778;9.986;2023-06-26T05:27:37;18.20;99.90
5588;DHT22;2816;49.778;9.986;2023-06-26T05:30:05;18.30;99.90
5588;DHT22;2816;49.778;9.986;2023-06-26T05:32:34;18.30;99.90
5588;DHT22;2816;49.778;9.986;2023-06-26T05:35:03;18.40;99.90
5588;DHT22;2816;49.778;9.986;2023-06-26T05:37:31;18.50;99.90
5588;DHT22;2816;49.778;9.986;2023-06-26T05:39:59;18.50;99.90
5588;DHT22;2816;49.778;9.986;2023-06-26T05:42:28;18.60;99.90
5588;DHT22;2816;49.778;9.986;2023-06-26T05:44:55;18.60;99.90
5588;DHT22;2816;49.778;9.986;2023-06-26T05:47:23;18.60;99.90
5588;DHT22;2816;49.778;9.986;2023-06-26T05:49:50;18.70;99.90
5588;DHT22;2816;49.778;9.986;2023-06-26T05:52:17;18.70;99.90
5588;DHT22;2816;49.778;9.986;2023-06-26T05:54:44;18.80;99.90
5588;DHT22;2816;49.778;9.986;2023-06-26T05:57:13;18.90;99.90
5588;DHT22;2816;49.778;9.986;2023-06-26T05:59:43;18.90;99.90
5588;DHT22;2816;49.778;9.986;2023-06-26T06:02:10;19.10;99.90
5588;DHT22;2816;49.778;9.986;2023-06-26T06:04:37;19.10;99.90
5588;DHT22;2816;49.778;9.986;2023-06-26T06:07:05;19.20;99.90
5588;DHT22;2816;49.778;9.986;2023-06-26T06:09:32;19.30;99.90
5588;DHT22;2816;49.778;9.986;2023-06-26T06:11:59;19.30;99.90
5588;DHT22;2816;49.778;9.986;2023-06-26T06:14:27;19.40;99.90
5588;DHT22;2816;49.778;9.986;2023-06-26T06:16:55;19.40;99.90
5588;DHT22;2816;49.778;9.986;2023-06-26T06:19:22;19.50;99.90
5588;DHT22;2816;49.778;9.986;2023-06-26T06:21:49;19.50;99.90
5588;DHT22;2816;49.778;9.986;2023-06-26T06:24:16;19.60;99.90
5588;DHT22;2816;49.778;9.986;2023-06-26T06:26:43;19.70;99.90
5588;DHT22;2816;49.778;9.986;2023-06-26T06:29:10;19.70;99.90
5588;DHT22;2816;49.778;9.986;2023-06-26T06:31:37;19.80;99.90
5588;DHT22;2816;49.778;9.986;2023-06-26T06:34:06;19.80;99.90
5588;DHT22;2816;49.778;9.986;2023-06-26T06:36:33;19.80;99.90
5588;DHT22;2816;49.778;9.986;2023-06-26T06:39:00;19.90;99.90
5588;DHT22;2816;49.778;9.986;2023-06-26T06:41:27;19.90;99.90
5588;DHT22;2816;49.778;9.986;2023-06-26T06:43:54;19.90;99.90
5588;DHT22;2816;49.778;9.986;2023-06-26T06:46:21;20.00;99.90
5588;DHT22;2816;49.778;9.986;2023-06-26T06:48:49;20.10;99.90
5588;DHT22;2816;49.778;9.986;2023-06-26T06:51:17;20.10;99.90
5588;DHT22;2816;49.778;9.986;2023-06-26T06:53:44;20.20;99.90
5588;DHT22;2816;49.778;9.986;2023-06-26T06:56:11;20.30;99.90
5588;DHT22;2816;49.778;9.986;2023-06-26T06:58:37;20.40;99.90
5588;DHT22;2816;49.778;9.986;2023-06-26T07:01:07;20.40;99.90
5588;DHT22;2816;49.778;9.986;2023-06-26T07:03:34;20.70;99.90
5588;DHT22;2816;49.778;9.986;2023-06-26T07:06:02;20.70;99.90
5588;DHT22;2816;49.778;9.986;2023-06-26T07:08:30;20.90;99.90
5588;DHT22;2816;49.778;9.986;2023-06-26T07:10:57;21.10;99.90
5588;DHT22;2816;49.778;9.986;2023-06-26T07:13:24;21.20;99.90
5588;DHT22;2816;49.778;9.986;2023-06-26T07:15:51;21.20;99.90
5588;DHT22;2816;49.778;9.986;2023-06-26T07:18:18;21.30;99.90
5588;DHT22;2816;49.778;9.986;2023-06-26T07:20:45;21.40;99.90
5588;DHT22;2816;49.778;9.986;2023-06-26T07:23:12;21.40;99.90
5588;DHT22;2816;49.778;9.986;2023-06-26T07:25:40;21.60;99.90
5588;DHT22;2816;49.778;9.986;2023-06-26T07:28:10;21.70;99.90
5588;DHT22;2816;49.778;9.986;2023-06-26T07:30:37;21.80;99.90
5588;DHT22;2816;49.778;9.986;2023-06-26T07:33:04;21.90;99.90
5588;DHT22;2816;49.778;9.986;2023-06-26T07:35:31;22.10;99.90
5588;DHT22;2816;49.778;9.986;2023-06-26T07:37:58;22.30;99.90
5588;DHT22;2816;49.778;9.986;2023-06-26T07:40:25;22.50;99.90
5588;DHT22;2816;49.778;9.986;2023-06-26T07:42:54;22.50;99.90
5588;DHT22;2816;49.778;9.986;2023-06-26T07:45:20;22.60;99.90
5588;DHT22;2816;49.778;9.986;2023-06-26T07:47:47;22.80;99.90
5588;DHT22;2816;49.778;9.986;2023-06-26T07:50:14;22.80;99.90
5588;DHT22;2816;49.778;9.986;2023-06-26T07:52:45;22.90;99.90
5588;DHT22;2816;49.778;9.986;2023-06-26T07:55:12;23.00;99.90
5588;DHT22;2816;49.778;9.986;2023-06-26T07:57:38;23.10;99.90
5588;DHT22;2816;49.778;9.986;2023-06-26T08:00:08;23.10;99.90
5588;DHT22;2816;49.778;9.986;2023-06-26T08:02:35;23.30;99.90
5588;DHT22;2816;49.778;9.986;2023-06-26T08:05:02;23.40;99.90
5588;DHT22;2816;49.778;9.986;2023-06-26T08:07:29;23.70;99.90
5588;DHT22;2816;49.778;9.986;2023-06-26T08:09:56;23.70;99.90
5588;DHT22;2816;49.778;9.986;2023-06-26T08:12:23;23.80;99.90
5588;DHT22;2816;49.778;9.986;2023-06-26T08:14:50;24.00;99.90
5588;DHT22;2816;49.778;9.986;2023-06-26T08:17:18;24.20;99.90
5588;DHT22;2816;49.778;9.986;2023-06-26T08:19:45;24.20;99.90
5588;DHT22;2816;49.778;9.986;2023-06-26T08:22:12;24.30;99.90
5588;DHT22;2816;49.778;9.986;2023-06-26T08:24:39;24.20;99.90
5588;DHT22;2816;49.778;9.986;2023-06-26T08:27:06;24.30;99.90
5588;DHT22;2816;49.778;9.986;2023-06-26T08:29:33;24.40;99.90
5588;DHT22;2816;49.778;9.986;2023-06-26T08:32:00;24.60;99.90
5588;DHT22;2816;49.778;9.986;2023-06-26T08:34:30;24.60;99.90
5588;DHT22;2816;49.778;9.986;2023-06-26T08:36:56;24.70;99.90
5588;DHT22;2816;49.778;9.986;2023-06-26T08:39:24;25.00;99.90
5588;DHT22;2816;49.778;9.986;2023-06-26T08:41:52;25.00;99.90
5588;DHT22;2816;49.778;9.986;2023-06-26T08:44:19;25.10;99.90
5588;DHT22;2816;49.778;9.986;2023-06-26T08:46:50;25.20;99.90
5588;DHT22;2816;49.778;9.986;2023-06-26T08:49:21;25.40;99.90
5588;DHT22;2816;49.778;9.986;2023-06-26T08:51:54;25.70;98.10
5588;DHT22;2816;49.778;9.986;2023-06-26T08:54:26;25.80;99.50
5588;DHT22;2816;49.778;9.986;2023-06-26T08:56:55;25.90;98.50
5588;DHT22;2816;49.778;9.986;2023-06-26T08:59:24;25.90;98.00
5588;DHT22;2816;49.778;9.986;2023-06-26T09:01:51;26.10;97.40
5588;DHT22;2816;49.778;9.986;2023-06-26T09:04:18;26.30;97.30
5588;DHT22;2816;49.778;9.986;2023-06-26T09:06:45;26.30;97.40
5588;DHT22;2816;49.778;9.986;2023-06-26T09:09:13;26.50;97.30
5588;DHT22;2816;49.778;9.986;2023-06-26T09:11:40;26.60;96.10
5588;DHT22;2816;49.778;9.986;2023-06-26T09:14:07;26.60;97.10
5588;DHT22;2816;49.778;9.986;2023-06-26T09:16:39;26.70;96.50
5588;DHT22;2816;49.778;9.986;2023-06-26T09:19:09;26.80;95.70
5588;DHT22;2816;49.778;9.986;2023-06-26T09:21:38;26.90;94.10
5588;DHT22;2816;49.778;9.986;2023-06-26T09:24:06;27.00;94.10
5588;DHT22;2816;49.778;9.986;2023-06-26T09:26:36;27.10;93.80
5588;DHT22;2816;49.778;9.986;2023-06-26T09:29:04;27.20;95.00
5588;DHT22;2816;49.778;9.986;2023-06-26T09:31:32;27.30;93.60
5588;DHT22;2816;49.778;9.986;2023-06-26T09:34:01;27.60;94.20
5588;DHT22;2816;49.778;9.986;2023-06-26T09:36:39;27.60;91.10
5588;DHT22;2816;49.778;9.986;2023-06-26T09:39:08;27.70;93.00
5588;DHT22;2816;49.778;9.986;2023-06-26T09:41:36;27.90;90.90
5588;DHT22;2816;49.778;9.986;2023-06-26T09:44:05;28.10;90.30
5588;DHT22;2816;49.778;9.986;2023-06-26T09:46:33;28.10;90.20
5588;DHT22;2816;49.778;9.986;2023-06-26T09:49:04;28.20;90.20
5588;DHT22;2816;49.778;9.986;2023-06-26T09:51:31;28.30;88.70
5588;DHT22;2816;49.778;9.986;2023-06-26T09:54:05;28.40;87.10
5588;DHT22;2816;49.778;9.986;2023-06-26T09:56:33;28.50;85.90
5588;DHT22;2816;49.778;9.986;2023-06-26T09:59:01;29.00;85.80
5588;DHT22;2816;49.778;9.986;2023-06-26T10:01:29;29.00;84.80
5588;DHT22;2816;49.778;9.986;2023-06-26T10:03:56;29.20;81.40
5588;DHT22;2816;49.778;9.986;2023-06-26T10:06:26;29.40;81.40
5588;DHT22;2816;49.778;9.986;2023-06-26T10:08:54;29.50;81.50
5588;DHT22;2816;49.778;9.986;2023-06-26T10:11:28;29.60;80.90
5588;DHT22;2816;49.778;9.986;2023-06-26T10:13:57;29.70;80.20
5588;DHT22;2816;49.778;9.986;2023-06-26T10:16:27;29.70;80.80
5588;DHT22;2816;49.778;9.986;2023-06-26T10:18:58;29.80;80.60
5588;DHT22;2816;49.778;9.986;2023-06-26T10:21:29;30.00;81.20
5588;DHT22;2816;49.778;9.986;2023-06-26T10:23:58;30.30;80.40
5588;DHT22;2816;49.778;9.986;2023-06-26T10:26:27;30.20;78.40
5588;DHT22;2816;49.778;9.986;2023-06-26T10:28:55;30.40;77.80
5588;DHT22;2816;49.778;9.986;2023-06-26T10:31:25;30.50;79.40
5588;DHT22;2816;49.778;9.986;2023-06-26T10:33:53;30.80;78.00
5588;DHT22;2816;49.778;9.986;2023-06-26T10:36:27;30.80;77.70
5588;DHT22;2816;49.778;9.986;2023-06-26T10:38:57;30.70;76.60
5588;DHT22;2816;49.778;9.986;2023-06-26T10:41:26;30.80;76.30
5588;DHT22;2816;49.778;9.986;2023-06-26T10:44:06;30.90;76.00
5588;DHT22;2816;49.778;9.986;2023-06-26T10:46:37;31.10;75.50
5588;DHT22;2816;49.778;9.986;2023-06-26T10:49:14;31.20;74.70
5588;DHT22;2816;49.778;9.986;2023-06-26T10:51:46;31.20;75.20
5588;DHT22;2816;49.778;9.986;2023-06-26T10:54:15;31.10;75.70
5588;DHT22;2816;49.778;9.986;2023-06-26T10:56:45;31.30;75.30
5588;DHT22;2816;49.778;9.986;2023-06-26T10:59:17;31.30;74.70
5588;DHT22;2816;49.778;9.986;2023-06-26T11:01:44;31.20;74.40
5588;DHT22;2816;49.778;9.986;2023-06-26T11:04:13;31.30;74.60
5588;DHT22;2816;49.778;9.986;2023-06-26T11:06:44;31.20;74.80
5588;DHT22;2816;49.778;9.986;2023-06-26T11:09:15;31.20;75.70
5588;DHT22;2816;49.778;9.986;2023-06-26T11:12:02;31.30;74.60
5588;DHT22;2816;49.778;9.986;2023-06-26T11:14:32;31.10;74.80
5588;DHT22;2816;49.778;9.986;2023-06-26T11:17:01;31.00;75.90
5588;DHT22;2816;49.778;9.986;2023-06-26T11:19:28;31.00;76.70
5588;DHT22;2816;49.778;9.986;2023-06-26T11:22:02;31.10;76.50
5588;DHT22;2816;49.778;9.986;2023-06-26T11:24:30;31.10;76.40
5588;DHT22;2816;49.778;9.986;2023-06-26T11:27:02;30.90;76.10
5588;DHT22;2816;49.778;9.986;2023-06-26T11:29:30;31.10;76.30
5588;DHT22;2816;49.778;9.986;2023-06-26T11:32:02;31.10;75.00
5588;DHT22;2816;49.778;9.986;2023-06-26T11:34:31;31.00;74.00
5588;DHT22;2816;49.778;9.986;2023-06-26T11:36:58;31.10;76.40
5588;DHT22;2816;49.778;9.986;2023-06-26T11:39:26;31.40;75.90
5588;DHT22;2816;49.778;9.986;2023-06-26T11:41:53;31.50;75.10
5588;DHT22;2816;49.778;9.986;2023-06-26T11:44:22;31.70;75.80
5588;DHT22;2816;49.778;9.986;2023-06-26T11:46:52;31.30;76.10
5588;DHT22;2816;49.778;9.986;2023-06-26T11:49:21;31.00;77.10
5588;DHT22;2816;49.778;9.986;2023-06-26T11:51:51;31.10;77.40
5588;DHT22;2816;49.778;9.986;2023-06-26T11:54:24;31.20;77.70
5588;DHT22;2816;49.778;9.986;2023-06-26T11:56:55;31.40;77.80
5588;DHT22;2816;49.778;9.986;2023-06-26T11:59:32;31.60;77.20
5588;DHT22;2816;49.778;9.986;2023-06-26T12:02:00;31.50;76.40
5588;DHT22;2816;49.778;9.986;2023-06-26T12:04:27;31.20;77.60
5588;DHT22;2816;49.778;9.986;2023-06-26T12:06:55;31.30;76.60
5588;DHT22;2816;49.778;9.986;2023-06-26T12:09:24;31.60;76.50
5588;DHT22;2816;49.778;9.986;2023-06-26T12:11:53;31.80;77.10
5588;DHT22;2816;49.778;9.986;2023-06-26T12:14:22;31.90;75.50
5588;DHT22;2816;49.778;9.986;2023-06-26T12:16:51;32.10;76.40
5588;DHT22;2816;49.778;9.986;2023-06-26T12:19:24;32.20;75.50
5588;DHT22;2816;49.778;9.986;2023-06-26T12:21:51;32.20;75.90
5588;DHT22;2816;49.778;9.986;2023-06-26T12:24:20;31.90;76.20
5588;DHT22;2816;49.778;9.986;2023-06-26T12:26:50;31.90;75.90
5588;DHT22;2816;49.778;9.986;2023-06-26T12:29:20;32.20;75.60
5588;DHT22;2816;49.778;9.986;2023-06-26T12:31:51;31.80;75.20
5588;DHT22;2816;49.778;9.986;2023-06-26T12:34:20;32.00;76.10
5588;DHT22;2816;49.778;9.986;2023-06-26T12:36:49;32.10;76.20
5588;DHT22;2816;49.778;9.986;2023-06-26T12:39:17;31.80;76.80
5588;DHT22;2816;49.778;9.986;2023-06-26T12:41:45;32.10;77.10
5588;DHT22;2816;49.778;9.986;2023-06-26T12:44:19;32.60;76.20
5588;DHT22;2816;49.778;9.986;2023-06-26T12:46:48;32.50;75.20
5588;DHT22;2816;49.778;9.986;2023-06-26T12:49:17;32.50;75.00
5588;DHT22;2816;49.778;9.986;2023-06-26T12:51:45;32.40;75.40
5588;DHT22;2816;49.778;9.986;2023-06-26T12:54:12;32.50;75.50
5588;DHT22;2816;49.778;9.986;2023-06-26T12:56:39;32.40;75.70
5588;DHT22;2816;49.778;9.986;2023-06-26T12:59:05;32.40;75.50
5588;DHT22;2816;49.778;9.986;2023-06-26T13:01:32;32.50;75.90
5588;DHT22;2816;49.778;9.986;2023-06-26T13:03:59;32.10;76.30
5588;DHT22;2816;49.778;9.986;2023-06-26T13:06:28;32.10;76.80
5588;DHT22;2816;49.778;9.986;2023-06-26T13:08:54;31.80;76.80
5588;DHT22;2816;49.778;9.986;2023-06-26T13:11:21;32.10;77.80
5588;DHT22;2816;49.778;9.986;2023-06-26T13:13:48;32.10;76.40
5588;DHT22;2816;49.778;9.986;2023-06-26T13:16:16;31.90;77.20
5588;DHT22;2816;49.778;9.986;2023-06-26T13:18:44;32.10;77.00
5588;DHT22;2816;49.778;9.986;2023-06-26T13:21:11;31.80;77.50
5588;DHT22;2816;49.778;9.986;2023-06-26T13:23:39;31.50;77.50
5588;DHT22;2816;49.778;9.986;2023-06-26T13:26:06;31.20;78.40
5588;DHT22;2816;49.778;9.986;2023-06-26T13:28:33;31.10;79.10
5588;DHT22;2816;49.778;9.986;2023-06-26T13:31:00;31.00;79.90
5588;DHT22;2816;49.778;9.986;2023-06-26T13:33:27;30.90;80.30
5588;DHT22;2816;49.778;9.986;2023-06-26T13:35:54;30.70;80.50
5588;DHT22;2816;49.778;9.986;2023-06-26T13:38:21;30.80;80.70
5588;DHT22;2816;49.778;9.986;2023-06-26T13:40:52;31.00;81.20
5588;DHT22;2816;49.778;9.986;2023-06-26T13:43:21;31.10;80.00
5588;DHT22;2816;49.778;9.986;2023-06-26T13:45:48;31.00;80.80
5588;DHT22;2816;49.778;9.986;2023-06-26T13:48:15;31.00;80.00
5588;DHT22;2816;49.778;9.986;2023-06-26T13:50:42;30.90;80.10
5588;DHT22;2816;49.778;9.986;2023-06-26T13:53:09;31.00;81.20
5588;DHT22;2816;49.778;9.986;2023-06-26T13:55:36;31.20;80.70
5588;DHT22;2816;49.778;9.986;2023-06-26T13:58:05;31.20;79.50
5588;DHT22;2816;49.778;9.986;2023-06-26T14:00:32;30.90;79.80
5588;DHT22;2816;49.778;9.986;2023-06-26T14:03:00;31.00;80.20
5588;DHT22;2816;49.778;9.986;2023-06-26T14:05:28;30.80;80.70
5588;DHT22;2816;49.778;9.986;2023-06-26T14:07:55;30.90;81.30
5588;DHT22;2816;49.778;9.986;2023-06-26T14:10:22;30.80;81.20
5588;DHT22;2816;49.778;9.986;2023-06-26T14:12:50;30.90;80.90
5588;DHT22;2816;49.778;9.986;2023-06-26T14:15:19;31.00;81.30
5588;DHT22;2816;49.778;9.986;2023-06-26T14:17:46;30.90;80.40
5588;DHT22;2816;49.778;9.986;2023-06-26T14:20:16;31.00;80.30
5588;DHT22;2816;49.778;9.986;2023-06-26T14:22:43;31.00;80.20
5588;DHT22;2816;49.778;9.986;2023-06-26T14:25:10;31.10;80.20
5588;DHT22;2816;49.778;9.986;2023-06-26T14:27:38;31.10;80.60
5588;DHT22;2816;49.778;9.986;2023-06-26T14:30:06;31.20;79.80
5588;DHT22;2816;49.778;9.986;2023-06-26T14:32:35;31.20;77.50
5588;DHT22;2816;49.778;9.986;2023-06-26T14:35:03;31.20;78.30
5588;DHT22;2816;49.778;9.986;2023-06-26T14:37:30;31.10;78.80
5588;DHT22;2816;49.778;9.986;2023-06-26T14:39:57;31.20;77.20
5588;DHT22;2816;49.778;9.986;2023-06-26T14:42:24;31.30;78.50
5588;DHT22;2816;49.778;9.986;2023-06-26T14:44:51;31.40;78.20
5588;DHT22;2816;49.778;9.986;2023-06-26T14:47:18;31.30;78.30
5588;DHT22;2816;49.778;9.986;2023-06-26T14:49:46;31.30;78.00
5588;DHT22;2816;49.778;9.986;2023-06-26T14:52:13;31.20;77.20
5588;DHT22;2816;49.778;9.986;2023-06-26T14:54:40;31.40;77.30
5588;DHT22;2816;49.778;9.986;2023-06-26T14:57:07;31.60;77.30
5588;DHT22;2816;49.778;9.986;2023-06-26T14:59:34;31.40;77.10
5588;DHT22;2816;49.778;9.986;2023-06-26T15:02:01;31.30;78.20
5588;DHT22;2816;49.778;9.986;2023-06-26T15:04:28;31.00;77.60
5588;DHT22;2816;49.778;9.986;2023-06-26T15:06:57;30.90;76.10
5588;DHT22;2816;49.778;9.986;2023-06-26T15:09:24;30.60;76.00
5588;DHT22;2816;49.778;9.986;2023-06-26T15:11:50;30.60;76.40
5588;DHT22;2816;49.778;9.986;2023-06-26T15:14:17;30.60;78.70
5588;DHT22;2816;49.778;9.986;2023-06-26T15:16:44;30.60;76.20
5588;DHT22;2816;49.778;9.986;2023-06-26T15:19:11;30.50;75.90
5588;DHT22;2816;49.778;9.986;2023-06-26T15:21:38;30.20;76.20
5588;DHT22;2816;49.778;9.986;2023-06-26T15:24:07;30.10;74.70
5588;DHT22;2816;49.778;9.986;2023-06-26T15:26:34;29.70;75.30
5588;DHT22;2816;49.778;9.986;2023-06-26T15:29:02;29.70;76.20
5588;DHT22;2816;49.778;9.986;2023-06-26T15:31:29;29.50;75.80
5588;DHT22;2816;49.778;9.986;2023-06-26T15:33:56;29.50;78.60
5588;DHT22;2816;49.778;9.986;2023-06-26T15:36:23;29.70;77.40
5588;DHT22;2816;49.778;9.986;2023-06-26T15:38:50;30.00;77.70
5588;DHT22;2816;49.778;9.986;2023-06-26T15:41:18;29.90;78.10
5588;DHT22;2816;49.778;9.986;2023-06-26T15:43:45;29.50;79.40
5588;DHT22;2816;49.778;9.986;2023-06-26T15:46:12;29.40;80.70
5588;DHT22;2816;49.778;9.986;2023-06-26T15:48:39;29.40;81.10
5588;DHT22;2816;49.778;9.986;2023-06-26T15:51:06;29.50;82.00
5588;DHT22;2816;49.778;9.986;2023-06-26T15:53:37;29.30;82.60
5588;DHT22;2816;49.778;9.986;2023-06-26T15:56:06;29.20;83.00
5588;DHT22;2816;49.778;9.986;2023-06-26T15:58:35;28.90;84.20
5588;DHT22;2816;49.778;9.986;2023-06-26T16:01:07;28.70;84.50
5588;DHT22;2816;49.778;9.986;2023-06-26T16:03:33;28.80;84.20
5588;DHT22;2816;49.778;9.986;2023-06-26T16:06:01;28.50;84.10
5588;DHT22;2816;49.778;9.986;2023-06-26T16:08:28;28.60;84.00